Time;durP1;ratioP1;P1;durP2;ratioP2;P2;SDS_P1;SDS_P2;PMS_P1;PMS_P2;Temp;Humidity;BMP_temperature;BMP_pressure;BME280_temperature;BME280_humidity;BME280_pressure;Samples;Min_cycle;Max_cycle;Signal;HPM_P1;HPM_P2
2022/07/30 05:07:10;;;;;;;8.25;5.05;;;17.00;99.90;;;;;;4885040;29;20364;-69
2022/07/30 05:10:00;;;;;;;6.93;5.20;;;17.10;99.90;;;;;;4871106;29;20029;-69
2022/07/30 05:16:18;;;;;;;8.00;5.68;;;17.30;99.90;;;;;;4831018;29;20156;-69
2022/07/30 05:19:10;;;;;;;6.05;4.90;;;17.40;99.90;;;;;;4814045;29;20056;-69
2022/07/30 05:21:54;;;;;;;10.73;5.15;;;17.60;99.90;;;;;;4813835;29;20041;-69
2022/07/30 05:24:20;;;;;;;6.57;5.40;;;17.70;99.90;;;;;;4814761;29;20068;-69
2022/07/30 05:27:19;;;;;;;6.45;4.85;;;17.90;99.90;;;;;;4831291;29;20042;-69
2022/07/30 05:30:03;;;;;;;17.10;5.88;;;17.90;99.90;;;;;;4815818;29;20038;-69
2022/07/30 05:35:28;;;;;;;7.25;4.97;;;18.10;99.90;;;;;;4828179;29;20228;-69
2022/07/30 05:37:54;;;;;;;9.32;4.95;;;18.10;99.90;;;;;;4815487;29;20041;-69
2022/07/30 05:40:22;;;;;;;7.90;5.25;;;18.20;99.90;;;;;;4814634;29;20101;-69
2022/07/30 05:43:26;;;;;;;8.73;5.72;;;18.30;99.90;;;;;;4794042;30;20074;-69
2022/07/30 05:45:52;;;;;;;7.88;5.00;;;18.40;99.90;;;;;;4793729;29;20130;-69
2022/07/30 05:48:18;;;;;;;6.00;4.35;;;18.50;99.90;;;;;;4793941;30;20375;-69
2022/07/30 05:50:44;;;;;;;8.55;5.18;;;18.60;99.90;;;;;;4796879;29;20065;-71
2022/07/30 05:53:19;;;;;;;8.13;4.25;;;18.80;99.90;;;;;;4812527;29;20382;-71
2022/07/30 05:56:05;;;;;;;9.75;4.95;;;18.90;99.90;;;;;;4858959;29;20100;-71
2022/07/30 05:58:55;;;;;;;6.35;4.28;;;19.10;99.90;;;;;;4887601;29;20039;-69
2022/07/30 06:01:49;;;;;;;8.45;4.18;;;19.20;99.90;;;;;;4891493;29;20050;-69
2022/07/30 06:04:24;;;;;;;8.32;3.65;;;19.40;99.90;;;;;;4873163;29;20074;-70
2022/07/30 06:06:59;;;;;;;7.93;3.92;;;19.60;99.90;;;;;;4852114;29;20337;-69
2022/07/30 06:09:46;;;;;;;6.65;3.63;;;19.80;99.80;;;;;;4851862;29;20059;-69
2022/07/30 06:12:13;;;;;;;5.15;3.33;;;20.00;97.80;;;;;;4866440;29;20101;-69
2022/07/30 06:14:49;;;;;;;8.32;3.13;;;20.10;97.20;;;;;;4851162;29;20029;-69
2022/07/30 06:17:55;;;;;;;8.30;3.35;;;20.30;96.90;;;;;;4851484;29;20123;-70
2022/07/30 06:20:53;;;;;;;4.93;3.30;;;20.50;95.60;;;;;;4792158;29;20047;-69
2022/07/30 06:23:47;;;;;;;7.55;3.47;;;20.60;95.50;;;;;;4775924;30;20035;-69
2022/07/30 06:35:09;;;;;;;7.05;3.50;;;21.10;93.50;;;;;;4740791;30;20058;-69
2022/07/30 06:37:35;;;;;;;4.80;3.08;;;21.30;93.00;;;;;;4732818;30;20068;-69
2022/07/30 06:40:24;;;;;;;9.00;3.60;;;21.40;92.40;;;;;;4708232;30;20317;-69
2022/07/30 06:43:14;;;;;;;5.33;3.27;;;21.50;91.90;;;;;;4705551;30;20072;-69
2022/07/30 06:46:16;;;;;;;7.40;3.70;;;21.70;91.50;;;;;;4711804;30;20502;-69
2022/07/30 06:49:07;;;;;;;6.05;3.03;;;21.80;91.10;;;;;;4719275;30;20041;-69
2022/07/30 06:51:34;;;;;;;7.15;3.40;;;21.90;90.50;;;;;;4717203;30;20245;-69
2022/07/30 06:54:28;;;;;;;7.85;3.70;;;22.00;90.00;;;;;;4740398;30;20045;-70
2022/07/30 06:57:23;;;;;;;5.50;3.47;;;22.10;89.50;;;;;;4775567;30;20043;-69
2022/07/30 07:00:02;;;;;;;7.53;4.45;;;22.20;88.80;;;;;;4775247;30;20047;-69
2022/07/30 07:02:38;;;;;;;9.55;3.47;;;22.20;88.20;;;;;;4779731;30;20061;-69
2022/07/30 07:05:10;;;;;;;7.28;2.60;;;22.30;89.00;;;;;;4795981;29;20382;-69
2022/07/30 07:08:23;;;;;;;5.80;3.70;;;22.40;88.90;;;;;;4839399;29;20036;-69
2022/07/30 07:10:55;;;;;;;7.72;3.67;;;22.60;87.30;;;;;;4869530;29;20089;-69
2022/07/30 07:13:54;;;;;;;5.63;3.30;;;22.60;87.20;;;;;;4870577;29;20349;-69
2022/07/30 07:16:42;;;;;;;6.07;3.72;;;22.70;87.70;;;;;;4869177;29;20318;-69
2022/07/30 07:19:27;;;;;;;8.80;3.85;;;22.90;86.50;;;;;;4886998;29;20060;-69
2022/07/30 07:21:56;;;;;;;7.68;4.10;;;23.10;85.90;;;;;;4870424;29;20455;-69
2022/07/30 07:27:42;;;;;;;7.90;4.35;;;23.10;84.20;;;;;;4873372;29;20348;-71
2022/07/30 07:30:29;;;;;;;7.88;4.22;;;23.20;83.40;;;;;;4861265;29;20040;-71
2022/07/30 07:33:01;;;;;;;7.28;3.60;;;23.10;83.30;;;;;;4869828;29;20044;-69
2022/07/30 07:35:27;;;;;;;8.10;3.65;;;23.20;83.20;;;;;;4869812;29;20089;-71
2022/07/30 07:37:53;;;;;;;5.55;3.63;;;23.20;83.30;;;;;;4870238;29;20021;-71
2022/07/30 07:40:34;;;;;;;;;;;23.30;83.60;;;;;;4870972;29;20032;-71
2022/07/30 07:43:00;;;;;;;;;;;23.40;83.50;;;;;;4870412;29;20207;-72
2022/07/30 07:45:26;;;;;;;5.95;3.10;;;23.60;81.70;;;;;;4871827;29;19912;-70
2022/07/30 07:48:01;;;;;;;7.03;3.70;;;23.60;81.30;;;;;;4873081;29;20238;-71
2022/07/30 07:50:53;;;;;;;8.05;3.47;;;23.50;80.50;;;;;;4851196;29;20108;-70
2022/07/30 07:53:25;;;;;;;6.38;2.90;;;23.60;81.30;;;;;;4872809;29;20338;-70
2022/07/30 07:55:51;;;;;;;6.38;3.30;;;23.70;81.60;;;;;;4890108;29;20044;-70
2022/07/30 07:58:19;;;;;;;5.77;3.83;;;23.70;78.90;;;;;;4873245;29;20048;-70
2022/07/30 08:00:45;;;;;;;5.05;2.60;;;23.70;79.60;;;;;;4871931;29;20063;-69
2022/07/30 08:03:11;;;;;;;5.85;2.85;;;23.80;79.40;;;;;;4882323;29;20048;-70
2022/07/30 08:05:37;;;;;;;4.40;2.70;;;23.80;78.00;;;;;;4890791;29;20345;-72
2022/07/30 08:08:16;;;;;;;6.30;3.42;;;23.90;78.20;;;;;;4891940;29;20168;-69
2022/07/30 08:11:00;;;;;;;6.97;3.63;;;24.00;78.40;;;;;;4894247;29;20275;-69
2022/07/30 08:13:44;;;;;;;3.85;2.55;;;23.90;78.70;;;;;;4907911;29;20052;-69
2022/07/30 08:16:28;;;;;;;5.45;2.53;;;24.00;79.10;;;;;;4907358;29;20060;-68
2022/07/30 08:18:54;;;;;;;5.82;2.40;;;24.20;77.90;;;;;;4908016;29;20036;-68
2022/07/30 08:21:45;;;;;;;4.60;2.42;;;24.40;75.40;;;;;;4885392;29;20040;-68
2022/07/30 08:24:16;;;;;;;7.03;3.05;;;24.50;76.00;;;;;;4891396;29;20104;-71
2022/07/30 08:26:41;;;;;;;5.38;2.97;;;24.80;73.70;;;;;;4890736;29;20056;-68
2022/07/30 08:29:08;;;;;;;6.95;2.60;;;24.60;73.50;;;;;;4891014;29;20044;-68
2022/07/30 08:31:34;;;;;;;4.90;2.75;;;24.60;73.20;;;;;;4885842;29;20048;-68
2022/07/30 08:34:01;;;;;;;7.13;2.42;;;24.70;73.60;;;;;;4891310;29;20021;-68
2022/07/30 08:36:27;;;;;;;4.70;2.35;;;24.50;72.80;;;;;;4890796;29;20033;-68
2022/07/30 08:38:53;;;;;;;7.18;2.30;;;24.40;73.50;;;;;;4891277;29;20020;-71
2022/07/30 08:41:20;;;;;;;6.32;2.58;;;24.60;73.50;;;;;;4891217;29;20322;-68
2022/07/30 08:43:49;;;;;;;5.78;2.47;;;24.60;74.10;;;;;;4890636;29;20303;-69
2022/07/30 08:46:17;;;;;;;4.85;2.20;;;24.50;74.50;;;;;;4879257;29;20041;-69
2022/07/30 08:48:53;;;;;;;5.07;2.40;;;24.80;74.10;;;;;;4871389;29;20081;-68
2022/07/30 08:51:21;;;;;;;5.95;2.10;;;25.20;72.60;;;;;;4871201;29;20040;-68
2022/07/30 08:54:07;;;;;;;5.93;2.50;;;25.10;72.60;;;;;;4886686;29;20338;-70
2022/07/30 08:56:34;;;;;;;4.82;2.10;;;25.10;72.40;;;;;;4870733;29;20033;-69
2022/07/30 08:59:00;;;;;;;4.97;2.03;;;25.30;71.30;;;;;;4887248;29;20337;-69
2022/07/30 09:01:27;;;;;;;8.02;2.60;;;25.40;70.70;;;;;;4888296;29;20238;-68
2022/07/30 09:03:55;;;;;;;5.78;2.10;;;25.50;70.40;;;;;;4889161;29;20152;-68
2022/07/30 09:06:21;;;;;;;5.32;2.25;;;25.70;69.00;;;;;;4906545;29;20352;-68
2022/07/30 09:08:47;;;;;;;5.00;2.00;;;25.70;68.90;;;;;;4888996;29;20580;-68
2022/07/30 09:11:13;;;;;;;5.53;2.15;;;25.70;69.00;;;;;;4906419;29;20048;-69
2022/07/30 09:13:41;;;;;;;7.85;2.70;;;25.70;68.50;;;;;;4889507;29;20040;-69
2022/07/30 09:16:21;;;;;;;7.40;2.23;;;25.60;68.80;;;;;;4888868;29;20048;-69
2022/07/30 09:18:53;;;;;;;6.20;2.63;;;25.80;69.20;;;;;;4888787;29;20032;-69
2022/07/30 09:21:27;;;;;;;4.85;2.00;;;26.00;68.30;;;;;;4889360;29;20092;-69
2022/07/30 09:24:25;;;;;;;5.90;2.03;;;26.00;68.40;;;;;;4889292;29;20191;-69
2022/07/30 09:27:06;;;;;;;5.38;2.65;;;26.30;67.10;;;;;;4906351;29;20107;-69
2022/07/30 09:29:58;;;;;;;3.72;2.13;;;26.40;67.40;;;;;;4861909;29;20041;-69
2022/07/30 09:32:54;;;;;;;3.97;1.92;;;26.80;66.60;;;;;;4886769;29;20067;-69
2022/07/30 09:35:40;;;;;;;5.10;2.20;;;27.00;66.20;;;;;;4887816;29;20047;-70
2022/07/30 09:38:07;;;;;;;5.72;2.38;;;27.30;65.80;;;;;;4888429;29;20041;-70
2022/07/30 09:40:56;;;;;;;5.15;1.80;;;27.50;65.10;;;;;;4888152;29;20032;-70
2022/07/30 09:43:51;;;;;;;6.47;2.47;;;27.30;64.80;;;;;;4870816;29;20120;-69
2022/07/30 09:46:50;;;;;;;5.53;2.10;;;27.10;65.10;;;;;;4880784;29;20045;-70
2022/07/30 09:50:12;;;;;;;4.25;2.15;;;26.60;66.20;;;;;;4872046;29;20037;-70
2022/07/30 10:00:18;;;;;;;5.00;2.00;;;26.00;66.60;;;;;;4887672;29;19923;-71
2022/07/30 10:06:37;;;;;;;3.63;1.67;;;26.80;64.70;;;;;;4887570;29;20040;-71
2022/07/30 10:09:33;;;;;;;3.33;1.55;;;26.60;63.40;;;;;;4871013;29;20120;-69
2022/07/30 10:12:02;;;;;;;3.92;1.60;;;26.60;63.60;;;;;;4871007;29;20069;-69
2022/07/30 10:14:42;;;;;;;4.30;1.63;;;26.50;63.80;;;;;;4871188;29;20082;-71
2022/07/30 10:17:11;;;;;;;2.72;1.38;;;26.70;63.30;;;;;;4886986;29;20113;-69
2022/07/30 10:19:40;;;;;;;3.95;1.20;;;27.00;62.40;;;;;;4870432;29;20033;-70
2022/07/30 10:22:36;;;;;;;7.03;1.70;;;27.00;62.60;;;;;;4887791;29;20326;-70
2022/07/30 10:25:27;;;;;;;6.50;1.48;;;26.80;62.90;;;;;;4873707;29;20136;-69
2022/07/30 10:28:43;;;;;;;2.65;1.40;;;26.90;62.60;;;;;;4887658;29;20077;-69
2022/07/30 10:31:18;;;;;;;3.78;1.50;;;26.90;62.90;;;;;;4887424;29;20065;-71
2022/07/30 10:33:47;;;;;;;2.90;1.27;;;27.10;61.90;;;;;;4886984;29;20287;-70
2022/07/30 10:36:30;;;;;;;4.85;1.52;;;27.40;62.20;;;;;;4856034;29;20033;-69
2022/07/30 10:39:06;;;;;;;4.22;1.48;;;27.80;61.70;;;;;;4870987;29;20077;-70
2022/07/30 10:42:07;;;;;;;4.55;1.52;;;27.70;62.10;;;;;;4855588;29;20059;-70
2022/07/30 10:45:04;;;;;;;4.20;1.98;;;27.90;61.70;;;;;;4827529;29;20044;-70
2022/07/30 10:47:31;;;;;;;3.97;1.55;;;28.10;61.50;;;;;;4887349;29;20363;-71
2022/07/30 10:50:15;;;;;;;2.83;1.50;;;28.10;60.50;;;;;;4888660;29;20059;-70
2022/07/30 10:52:52;;;;;;;6.55;1.67;;;28.20;60.50;;;;;;4905775;29;20036;-69
2022/07/30 10:55:26;;;;;;;4.40;1.52;;;28.20;59.80;;;;;;4906157;29;20040;-69
2022/07/30 10:58:08;;;;;;;3.00;1.63;;;28.10;60.00;;;;;;4890761;29;20056;-69
2022/07/30 11:00:59;;;;;;;4.10;1.58;;;27.80;60.50;;;;;;4888853;29;20381;-70
2022/07/30 11:03:29;;;;;;;3.45;1.52;;;27.80;60.80;;;;;;4905394;29;20068;-69
2022/07/30 11:06:14;;;;;;;5.32;1.73;;;28.00;60.40;;;;;;4906118;29;20199;-70
2022/07/30 11:08:44;;;;;;;4.70;1.60;;;28.10;60.50;;;;;;4906166;29;20028;-69
2022/07/30 11:11:21;;;;;;;3.10;1.33;;;28.10;60.70;;;;;;4906587;29;20037;-69
2022/07/30 11:13:53;;;;;;;5.32;2.00;;;28.10;59.60;;;;;;4906321;29;20077;-69
2022/07/30 11:16:43;;;;;;;2.85;1.40;;;28.10;60.20;;;;;;4905977;29;20040;-69
2022/07/30 11:19:15;;;;;;;3.65;1.52;;;28.20;60.90;;;;;;4908365;29;20263;-69
2022/07/30 11:21:42;;;;;;;3.42;1.30;;;28.20;61.40;;;;;;4877662;29;20049;-70
2022/07/30 11:24:41;;;;;;;5.43;1.70;;;28.30;60.50;;;;;;4893109;29;20317;-69
2022/07/30 11:27:29;;;;;;;4.72;1.40;;;28.40;59.70;;;;;;4909167;29;20310;-70
2022/07/30 11:29:55;;;;;;;4.53;1.52;;;28.50;60.00;;;;;;4908712;29;20091;-69
2022/07/30 11:32:30;;;;;;;2.92;1.48;;;28.80;60.00;;;;;;4908722;29;20037;-70
2022/07/30 11:35:15;;;;;;;2.95;1.20;;;28.90;59.10;;;;;;4908638;29;20024;-70
2022/07/30 11:38:14;;;;;;;2.72;1.20;;;29.10;58.70;;;;;;4908786;29;20033;-71
2022/07/30 11:40:49;;;;;;;2.90;1.00;;;29.60;58.40;;;;;;4908766;29;20037;-70
2022/07/30 11:43:29;;;;;;;3.85;1.10;;;30.30;56.50;;;;;;4909239;29;20036;-70
2022/07/30 11:46:21;;;;;;;2.70;1.17;;;30.80;55.60;;;;;;4891100;29;20040;-68
2022/07/30 11:49:07;;;;;;;2.15;0.90;;;31.60;54.40;;;;;;4907769;29;20029;-70
2022/07/30 11:51:44;;;;;;;3.53;1.10;;;32.30;53.20;;;;;;4892360;29;20111;-70
2022/07/30 11:54:10;;;;;;;2.95;0.90;;;32.90;52.70;;;;;;4892220;29;20033;-70
2022/07/30 11:56:57;;;;;;;2.25;0.90;;;33.60;52.10;;;;;;4891997;29;20068;-71
2022/07/30 11:59:55;;;;;;;1.83;0.77;;;34.10;52.20;;;;;;4888285;29;20160;-70
2022/07/30 12:02:28;;;;;;;2.67;0.85;;;35.70;50.40;;;;;;4841927;29;20053;-70
2022/07/30 12:04:53;;;;;;;3.70;1.20;;;36.00;49.50;;;;;;4857609;29;20052;-70
2022/07/30 12:07:22;;;;;;;1.80;1.00;;;36.60;48.80;;;;;;4889941;29;20074;-71
2022/07/30 12:09:48;;;;;;;2.95;0.85;;;35.70;48.70;;;;;;4889733;29;20028;-72
2022/07/30 12:12:23;;;;;;;1.83;0.80;;;35.70;48.90;;;;;;4889778;29;20029;-71
2022/07/30 12:14:50;;;;;;;3.47;1.00;;;36.30;48.40;;;;;;4889681;29;20112;-71
2022/07/30 12:17:16;;;;;;;3.22;0.98;;;36.10;47.30;;;;;;4872748;29;20052;-71
2022/07/30 12:19:46;;;;;;;3.65;0.88;;;35.90;48.20;;;;;;4872833;29;20056;-72
2022/07/30 12:22:15;;;;;;;1.75;0.73;;;36.60;47.40;;;;;;4873438;29;20065;-70
2022/07/30 12:24:41;;;;;;;2.47;0.82;;;37.30;48.10;;;;;;4889454;29;20298;-70
2022/07/30 12:27:10;;;;;;;3.35;0.95;;;37.40;46.50;;;;;;4873350;29;20021;-70
2022/07/30 12:29:36;;;;;;;3.42;0.90;;;37.00;46.60;;;;;;4888972;29;20078;-69
2022/07/30 12:32:07;;;;;;;3.53;1.10;;;36.60;46.10;;;;;;4888755;29;20045;-72
2022/07/30 12:34:57;;;;;;;4.07;1.10;;;36.20;46.90;;;;;;4889675;29;20056;-72
2022/07/30 12:37:35;;;;;;;3.92;1.02;;;36.00;46.70;;;;;;4859280;29;20032;-70
2022/07/30 12:40:24;;;;;;;2.05;0.90;;;36.60;46.70;;;;;;4872137;29;20052;-71
2022/07/30 12:42:54;;;;;;;2.03;0.77;;;36.60;46.60;;;;;;4869599;29;20049;-71
2022/07/30 12:45:47;;;;;;;2.65;0.88;;;35.10;46.60;;;;;;4892426;29;20032;-71
2022/07/30 12:48:13;;;;;;;1.98;0.75;;;36.00;46.90;;;;;;4908321;29;20055;-70
2022/07/30 12:50:38;;;;;;;1.80;0.80;;;37.40;45.10;;;;;;4891281;29;20016;-70
2022/07/30 12:53:05;;;;;;;1.92;0.80;;;38.10;45.10;;;;;;4875749;29;20366;-70
2022/07/30 12:55:43;;;;;;;3.60;0.80;;;39.00;44.40;;;;;;4891718;29;20036;-70
2022/07/30 12:58:09;;;;;;;2.40;0.77;;;40.20;44.00;;;;;;4907972;29;20097;-69
2022/07/30 13:00:49;;;;;;;1.85;0.68;;;40.00;43.20;;;;;;4907196;29;20261;-70
2022/07/30 13:03:25;;;;;;;2.25;0.80;;;38.20;44.10;;;;;;4907807;29;20068;-72
2022/07/30 13:05:53;;;;;;;2.05;0.80;;;37.00;45.00;;;;;;4907639;29;20068;-70
2022/07/30 13:08:20;;;;;;;1.70;0.73;;;35.20;46.30;;;;;;4907930;29;20036;-71
2022/07/30 13:10:59;;;;;;;2.47;1.00;;;36.00;46.80;;;;;;4907840;29;20043;-70
2022/07/30 13:13:27;;;;;;;2.33;0.90;;;37.40;45.20;;;;;;4875504;29;20286;-71
2022/07/30 13:16:01;;;;;;;3.42;0.93;;;38.80;44.30;;;;;;4906811;29;20033;-70
2022/07/30 13:18:29;;;;;;;1.45;0.68;;;39.50;43.40;;;;;;4906832;29;20033;-72
2022/07/30 13:20:55;;;;;;;2.78;1.20;;;40.50;43.10;;;;;;4906481;29;20065;-69
2022/07/30 13:23:22;;;;;;;1.70;0.83;;;41.00;42.80;;;;;;4906955;29;20055;-70
2022/07/30 13:25:48;;;;;;;2.10;0.75;;;41.30;42.50;;;;;;4906849;29;20037;-69
2022/07/30 13:28:14;;;;;;;2.42;0.80;;;41.10;42.20;;;;;;4890389;29;20271;-71
2022/07/30 13:30:40;;;;;;;2.88;0.75;;;39.80;43.10;;;;;;4906386;29;20052;-70
2022/07/30 13:33:09;;;;;;;2.17;0.73;;;39.80;42.60;;;;;;4906288;29;20063;-70
2022/07/30 13:35:35;;;;;;;1.83;0.88;;;39.80;42.70;;;;;;4906615;29;20318;-71
2022/07/30 13:38:12;;;;;;;1.48;0.68;;;40.70;42.30;;;;;;4906101;29;20104;-70
2022/07/30 13:40:38;;;;;;;2.28;0.60;;;41.60;41.70;;;;;;4906325;29;20032;-70
2022/07/30 13:43:07;;;;;;;2.72;0.90;;;41.10;41.90;;;;;;4905809;29;20445;-70
2022/07/30 13:45:42;;;;;;;2.38;0.80;;;41.10;42.00;;;;;;4885960;29;20043;-70
2022/07/30 13:48:08;;;;;;;1.77;0.70;;;42.00;41.50;;;;;;4887075;29;20097;-73
2022/07/30 13:51:12;;;;;;;2.60;0.88;;;43.00;41.00;;;;;;4887954;29;20040;-69
2022/07/30 13:53:43;;;;;;;2.63;0.82;;;43.70;40.20;;;;;;4885489;29;20330;-70
2022/07/30 13:56:17;;;;;;;2.17;0.68;;;43.50;40.30;;;;;;4871406;29;20041;-71
2022/07/30 13:59:14;;;;;;;1.55;0.60;;;43.40;40.90;;;;;;4882130;29;20164;-70
2022/07/30 14:01:40;;;;;;;2.95;0.70;;;44.00;41.10;;;;;;4830078;29;20052;-72
2022/07/30 14:04:09;;;;;;;1.55;0.55;;;45.30;40.00;;;;;;4887177;29;20057;-70
2022/07/30 14:06:44;;;;;;;2.00;0.80;;;44.80;39.50;;;;;;4887696;29;20032;-71
2022/07/30 14:09:11;;;;;;;3.85;0.70;;;44.70;39.70;;;;;;4892636;29;20287;-71
2022/07/30 14:11:39;;;;;;;2.15;0.77;;;44.60;39.90;;;;;;4889725;29;20055;-72
2022/07/30 14:14:09;;;;;;;1.23;0.52;;;45.00;39.70;;;;;;4905822;29;20475;-72
2022/07/30 14:16:34;;;;;;;2.25;0.70;;;45.00;39.60;;;;;;4888350;29;20067;-71
2022/07/30 14:19:00;;;;;;;2.55;0.70;;;42.40;39.90;;;;;;4905550;29;20273;-71
2022/07/30 14:21:26;;;;;;;2.13;0.73;;;39.90;42.20;;;;;;4906092;29;20048;-71
2022/07/30 14:23:55;;;;;;;2.65;1.08;;;41.00;42.70;;;;;;4905728;29;20036;-72
2022/07/30 14:26:25;;;;;;;2.33;0.70;;;42.80;41.10;;;;;;4905812;29;20047;-71
2022/07/30 14:28:51;;;;;;;2.63;0.80;;;43.80;40.10;;;;;;4889246;29;20033;-71
2022/07/30 14:31:20;;;;;;;1.58;0.70;;;44.70;40.10;;;;;;4904753;29;20048;-71
2022/07/30 14:33:48;;;;;;;2.05;0.93;;;45.10;39.30;;;;;;4905483;29;20028;-71
2022/07/30 14:36:14;;;;;;;2.25;0.75;;;44.50;39.30;;;;;;4905530;29;20145;-72
2022/07/30 14:38:40;;;;;;;3.78;0.90;;;44.20;39.60;;;;;;4905566;29;20025;-71
2022/07/30 14:41:06;;;;;;;2.08;0.70;;;42.80;40.00;;;;;;4904557;29;20096;-72
2022/07/30 14:43:32;;;;;;;3.22;0.70;;;43.40;40.50;;;;;;4905063;29;20029;-71
2022/07/30 14:46:00;;;;;;;1.85;0.60;;;41.70;40.00;;;;;;4903620;29;20044;-71
2022/07/30 14:48:28;;;;;;;1.83;0.73;;;38.70;42.00;;;;;;4887493;29;20040;-71
2022/07/30 14:51:00;;;;;;;2.60;0.80;;;37.40;44.20;;;;;;4888021;29;20040;-72
2022/07/30 14:53:27;;;;;;;2.50;1.05;;;37.30;43.90;;;;;;4889228;29;20056;-72
2022/07/30 14:55:56;;;;;;;2.00;1.00;;;37.00;44.60;;;;;;4876413;29;20032;-70
2022/07/30 14:58:22;;;;;;;1.50;0.90;;;38.00;43.60;;;;;;4908479;29;20212;-71
2022/07/30 15:00:48;;;;;;;4.70;0.63;;;39.40;42.70;;;;;;4875572;29;20103;-71
2022/07/30 15:03:27;;;;;;;2.10;0.75;;;41.20;42.10;;;;;;4908134;29;20092;-71
2022/07/30 15:05:53;;;;;;;2.70;0.60;;;42.60;40.90;;;;;;4908957;29;20028;-71
2022/07/30 15:08:22;;;;;;;2.42;0.63;;;43.60;39.70;;;;;;4876420;29;20073;-71
2022/07/30 15:10:47;;;;;;;1.83;0.60;;;42.30;40.00;;;;;;4875968;29;20033;-71
2022/07/30 15:13:16;;;;;;;1.63;0.93;;;41.20;40.50;;;;;;4891193;29;20103;-72
2022/07/30 15:15:45;;;;;;;2.20;0.80;;;41.10;40.80;;;;;;4907056;29;20044;-72
2022/07/30 15:18:11;;;;;;;1.75;0.60;;;40.30;40.80;;;;;;4890585;29;20055;-72
2022/07/30 15:20:37;;;;;;;2.67;0.70;;;39.40;41.30;;;;;;4891292;29;20187;-70
2022/07/30 15:23:03;;;;;;;3.20;1.10;;;39.30;42.00;;;;;;4907369;29;20040;-70
2022/07/30 15:25:29;;;;;;;2.45;0.65;;;39.70;41.70;;;;;;4907844;29;20058;-70
2022/07/30 15:28:00;;;;;;;1.40;0.70;;;40.20;41.40;;;;;;4875350;29;20073;-71
2022/07/30 15:30:26;;;;;;;2.17;0.60;;;40.60;41.30;;;;;;4907424;29;20078;-71
2022/07/30 15:32:57;;;;;;;1.75;0.70;;;39.80;41.40;;;;;;4907703;29;20050;-71
2022/07/30 15:35:23;;;;;;;2.63;0.88;;;39.50;41.80;;;;;;4891098;29;20268;-72
2022/07/30 15:37:49;;;;;;;1.92;0.70;;;39.70;41.90;;;;;;4907659;29;20024;-72
2022/07/30 15:40:15;;;;;;;3.90;0.65;;;39.20;42.40;;;;;;4906992;29;20052;-73
2022/07/30 15:42:49;;;;;;;1.60;0.60;;;40.90;41.50;;;;;;4907462;29;20095;-72
2022/07/30 15:45:23;;;;;;;3.03;0.90;;;41.00;40.90;;;;;;4900388;29;20034;-72
2022/07/30 15:47:52;;;;;;;2.75;0.63;;;41.40;40.80;;;;;;4869973;29;20045;-69
2022/07/30 15:50:44;;;;;;;1.70;0.55;;;42.00;40.70;;;;;;4870094;29;20078;-71
2022/07/30 15:53:13;;;;;;;1.15;0.57;;;42.10;40.60;;;;;;4860994;29;20056;-70
2022/07/30 15:55:39;;;;;;;2.67;0.70;;;41.00;41.20;;;;;;4869807;29;20046;-71
2022/07/30 15:58:05;;;;;;;2.40;0.93;;;41.20;40.90;;;;;;4887843;29;20107;-72
2022/07/30 16:00:36;;;;;;;1.70;0.50;;;41.70;40.90;;;;;;4906636;29;20056;-72
2022/07/30 16:03:02;;;;;;;2.33;0.60;;;40.40;41.10;;;;;;4898120;29;20048;-72
2022/07/30 16:05:27;;;;;;;2.17;0.63;;;38.20;42.60;;;;;;4889718;29;20033;-72
2022/07/30 16:07:56;;;;;;;1.85;0.77;;;36.70;44.00;;;;;;4906823;29;20032;-71
2022/07/30 16:10:22;;;;;;;2.20;0.80;;;35.10;45.40;;;;;;4890472;29;20056;-71
2022/07/30 16:12:47;;;;;;;2.08;0.85;;;33.60;46.60;;;;;;4907899;29;20048;-71
2022/07/30 16:15:13;;;;;;;2.35;0.80;;;33.20;47.60;;;;;;4905918;29;20239;-70
2022/07/30 16:17:39;;;;;;;2.80;0.65;;;35.10;46.20;;;;;;4907172;29;20318;-71
2022/07/30 16:20:14;;;;;;;2.63;0.65;;;35.40;45.40;;;;;;4907074;29;20309;-71
2022/07/30 16:22:43;;;;;;;2.97;0.80;;;35.10;45.50;;;;;;4907377;29;20077;-71
2022/07/30 16:25:09;;;;;;;2.60;0.90;;;34.20;46.60;;;;;;4906658;29;20036;-70
2022/07/30 16:27:35;;;;;;;2.47;1.10;;;34.70;46.60;;;;;;4890282;29;20318;-71
2022/07/30 16:30:03;;;;;;;2.50;0.88;;;35.00;45.80;;;;;;4906657;29;20079;-71
2022/07/30 16:32:32;;;;;;;2.08;0.90;;;35.10;45.30;;;;;;4906592;29;20267;-71
2022/07/30 16:34:58;;;;;;;1.63;0.70;;;35.00;45.90;;;;;;4906569;29;20109;-71
2022/07/30 16:37:30;;;;;;;2.28;1.00;;;36.20;45.40;;;;;;4906866;29;20041;-71
2022/07/30 16:42:46;;;;;;;4.07;0.95;;;39.20;42.80;;;;;;4900682;29;20052;-71
2022/07/30 16:45:17;;;;;;;2.58;0.75;;;40.20;41.50;;;;;;4900193;29;20063;-71
2022/07/30 16:47:43;;;;;;;1.63;0.80;;;39.80;41.80;;;;;;4852453;29;20037;-71
2022/07/30 16:50:24;;;;;;;1.60;0.70;;;38.20;42.30;;;;;;4869430;29;20252;-71
2022/07/30 16:52:59;;;;;;;1.98;0.75;;;36.60;43.30;;;;;;4869591;29;20140;-71
2022/07/30 16:55:27;;;;;;;1.95;0.90;;;35.00;44.50;;;;;;4853388;29;20082;-71
2022/07/30 16:57:52;;;;;;;3.08;0.93;;;33.90;46.00;;;;;;4883922;29;20332;-71
2022/07/30 17:03:17;;;;;;;2.28;0.73;;;32.60;47.40;;;;;;4887944;29;20131;-71
2022/07/30 17:05:58;;;;;;;2.35;0.77;;;32.20;48.40;;;;;;4906623;29;20036;-70
2022/07/30 17:08:24;;;;;;;4.43;0.95;;;31.70;49.10;;;;;;4906542;29;20338;-72
2022/07/30 17:10:50;;;;;;;2.03;1.00;;;31.50;49.60;;;;;;4905938;29;20108;-72
2022/07/30 17:13:21;;;;;;;3.17;1.00;;;31.30;49.80;;;;;;4906014;29;20077;-70
2022/07/30 17:15:47;;;;;;;1.73;0.90;;;31.10;50.30;;;;;;4888094;29;20294;-70
2022/07/30 17:18:14;;;;;;;2.35;0.80;;;30.90;50.30;;;;;;4905210;29;20032;-69
2022/07/30 17:20:42;;;;;;;1.98;1.15;;;30.90;50.50;;;;;;4906247;29;20040;-69
2022/07/30 17:23:08;;;;;;;2.38;1.02;;;30.80;50.50;;;;;;4905472;29;20028;-70
2022/07/30 17:25:37;;;;;;;2.05;1.02;;;30.80;50.60;;;;;;4884764;29;20056;-70
2022/07/30 17:28:06;;;;;;;2.78;1.50;;;30.90;50.50;;;;;;4905297;29;20111;-72
2022/07/30 17:30:35;;;;;;;5.72;1.33;;;30.80;50.30;;;;;;4888422;29;20055;-69
2022/07/30 17:33:03;;;;;;;2.42;1.00;;;30.70;50.50;;;;;;4888419;29;20063;-74
2022/07/30 17:35:29;;;;;;;3.00;0.98;;;30.50;50.40;;;;;;4906306;29;20037;-70
2022/07/30 17:37:56;;;;;;;3.10;1.15;;;30.10;50.50;;;;;;4905973;29;20105;-68
2022/07/30 17:40:25;;;;;;;2.63;1.10;;;29.80;51.00;;;;;;4905395;29;20044;-69
2022/07/30 17:42:54;;;;;;;3.40;1.30;;;29.50;51.50;;;;;;4906122;29;20124;-72
2022/07/30 17:45:22;;;;;;;3.20;0.90;;;29.30;51.80;;;;;;4897405;29;20162;-68
2022/07/30 17:47:48;;;;;;;3.97;1.00;;;29.00;51.90;;;;;;4867944;29;20101;-68
2022/07/30 17:50:14;;;;;;;3.10;1.17;;;28.80;51.80;;;;;;4867326;29;20033;-68
2022/07/30 17:52:41;;;;;;;2.90;1.10;;;28.80;52.60;;;;;;4879453;29;20314;-68
2022/07/30 17:55:10;;;;;;;2.70;1.10;;;29.00;52.00;;;;;;4884996;29;20173;-69
2022/07/30 17:57:35;;;;;;;3.08;1.20;;;29.00;51.80;;;;;;4890216;29;20056;-68
2022/07/30 18:00:01;;;;;;;2.40;1.30;;;28.90;52.60;;;;;;4899894;29;20307;-69
2022/07/30 18:02:30;;;;;;;2.55;1.13;;;28.90;52.00;;;;;;4888906;29;20112;-70
2022/07/30 18:15:31;;;;;;;3.47;1.30;;;28.50;52.50;;;;;;4887050;29;20029;-71
2022/07/30 18:17:56;;;;;;;2.45;1.40;;;28.40;52.40;;;;;;4904039;29;20044;-71
2022/07/30 18:20:22;;;;;;;1.90;1.10;;;28.30;52.60;;;;;;4885989;29;20032;-72
2022/07/30 18:23:20;;;;;;;3.33;1.17;;;28.20;52.50;;;;;;4903944;29;20093;-70
2022/07/30 18:25:49;;;;;;;;;;;28.10;53.00;;;;;;4828187;29;20087;-70
2022/07/30 18:28:18;;;;;;;2.25;1.00;;;28.00;53.20;;;;;;4893988;29;20166;-70
2022/07/30 18:30:43;;;;;;;4.60;1.23;;;27.90;53.40;;;;;;4903581;29;20242;-70
2022/07/30 18:33:09;;;;;;;3.17;1.23;;;27.80;53.70;;;;;;4902881;29;20037;-70
2022/07/30 18:35:36;;;;;;;1.95;1.02;;;27.70;53.60;;;;;;4903962;29;20025;-70
2022/07/30 18:38:05;;;;;;;3.05;1.40;;;27.50;53.70;;;;;;4885097;29;20040;-71
2022/07/30 18:40:34;;;;;;;3.85;1.35;;;27.40;54.00;;;;;;4873085;29;20040;-71
2022/07/30 18:42:59;;;;;;;3.83;1.20;;;27.30;54.30;;;;;;4890291;29;20093;-70
2022/07/30 18:45:27;;;;;;;2.70;1.40;;;27.20;54.60;;;;;;4893866;29;20404;-72
2022/07/30 18:47:56;;;;;;;2.97;1.38;;;27.10;54.90;;;;;;4859508;29;20100;-70
2022/07/30 18:50:26;;;;;;;4.35;1.58;;;26.90;55.00;;;;;;4884542;29;20053;-70
2022/07/30 18:53:16;;;;;;;2.00;1.33;;;26.80;55.30;;;;;;4867803;29;20280;-70
2022/07/30 18:55:51;;;;;;;5.72;1.98;;;26.70;55.60;;;;;;4876780;29;20037;-70
2022/07/30 18:58:21;;;;;;;3.13;1.77;;;26.70;55.80;;;;;;4895722;29;20032;-70
2022/07/30 19:00:53;;;;;;;5.18;1.83;;;26.50;55.90;;;;;;4900483;29;20051;-70
2022/07/30 19:03:24;;;;;;;3.22;1.63;;;26.40;56.10;;;;;;4890572;29;20119;-72
2022/07/30 19:05:57;;;;;;;4.03;1.50;;;26.30;56.40;;;;;;4866978;29;20052;-71
2022/07/30 19:08:26;;;;;;;4.43;1.63;;;26.10;56.60;;;;;;4885102;29;20048;-71
2022/07/30 19:10:53;;;;;;;5.95;1.70;;;26.10;57.10;;;;;;4871114;29;20127;-71
2022/07/30 19:13:43;;;;;;;3.22;1.90;;;25.90;57.20;;;;;;4883534;29;20047;-70
2022/07/30 19:16:57;;;;;;;3.58;1.65;;;25.90;57.30;;;;;;4903266;29;20052;-71